Nbp Island — V2FH3 — position and weather

sailwx.info

Track history (hours):
 
Tides and Currents Weather Stations Pressure Air Temp Water Temp Dewpoint Dewpoint Depression Visibility Wind Speed Wind Dir Waves Ship Positions

Nbp Island

Last reported at 2016-May-28 00:22 UTC. Time now 2016-May-29 23:03 UTC.
Position N 39°01' W 009°50'.

Length 107 m; draft 5.2 m.

Type: Cargo ship. MMSI: 305674000.

Date/timePositionNaut miles runAvg speedWind from/ knotsBaromVisibWave heightAir tempDewpointWater temp
2016-May-28 00:22N 39°01' W 009°50'1111.8
2016-May-27 23:26N 38°50' W 009°50'1011.7
2016-May-27 22:33N 38°40' W 009°49'1311.8
2016-May-27 21:30N 38°27' W 009°45'1311.8
2016-May-27 20:24N 38°15' W 009°41'1011.9
2016-May-27 19:33N 38°05' W 009°39'1211.8
2016-May-27 18:33N 37°53' W 009°35'1211.9
2016-May-27 17:33N 37°42' W 009°32'21510.3
2016-May-26 20:33N 35°58' W 005°36'8 8.1
2016-May-26 19:33N 35°60' W 005°27'9 8.6
2016-May-26 18:33N 36°02' W 005°16'33211.7
2016-May-25 14:14N 36°53' E 001°31'812.0
2016-May-25 13:33N 36°54' E 001°41'  
2016-May-18 22:21N 37°01' E 003°26'9 9.7
2016-May-18 21:26N 36°60' E 003°15'1210.0
2016-May-18 20:13N 36°58' E 002°60'1010.2
2016-May-18 19:17N 36°57' E 002°48'710.0
2016-May-18 18:33N 36°56' E 002°39'10710.7
2016-May-18 08:32N 36°35' E 000°27'  
Track history (hours):
 
Tides and Currents Weather Stations Pressure Air Temp Water Temp Dewpoint Dewpoint Depression Visibility Wind Speed Wind Dir Waves Ship Positions

Nbp Island

Last reported at 2016-May-28 00:22 UTC. Time now 2016-May-29 23:03 UTC.
Position N 39°01' W 009°50'.

Length 107 m; draft 5.2 m.

Type: Cargo ship. MMSI: 305674000.

Date/timePositionNaut miles runAvg speedWind from/ knotsBaromVisibWave heightAir tempDewpointWater temp
2016-May-28 00:22N 39°01' W 009°50'1111.8
2016-May-27 23:26N 38°50' W 009°50'1011.7
2016-May-27 22:33N 38°40' W 009°49'1311.8
2016-May-27 21:30N 38°27' W 009°45'1311.8
2016-May-27 20:24N 38°15' W 009°41'1011.9
2016-May-27 19:33N 38°05' W 009°39'1211.8
2016-May-27 18:33N 37°53' W 009°35'1211.9
2016-May-27 17:33N 37°42' W 009°32'21510.3
2016-May-26 20:33N 35°58' W 005°36'8 8.1
2016-May-26 19:33N 35°60' W 005°27'9 8.6
2016-May-26 18:33N 36°02' W 005°16'33211.7
2016-May-25 14:14N 36°53' E 001°31'812.0
2016-May-25 13:33N 36°54' E 001°41'  
2016-May-18 22:21N 37°01' E 003°26'9 9.7
2016-May-18 21:26N 36°60' E 003°15'1210.0
2016-May-18 20:13N 36°58' E 002°60'1010.2
2016-May-18 19:17N 36°57' E 002°48'710.0
2016-May-18 18:33N 36°56' E 002°39'10710.7
2016-May-18 08:32N 36°35' E 000°27'  

Dump ship's entire track history